Vidor, Texas
Current Conditions -  °F | °C
As of 6:53 PM on Friday 19 Dec 2014 (Local Time) from KBPT Reporting Station
Light Rain Light Rain  
Wind Chill: 54°   Ceiling: 600
Heat Index: 54°   Visibility: 10mi
Dew Point: 53°   Wind: 10mph
Humidity: 97%   Direction: 360°N
Pressure: 30.05"   Gusts: NA
Location:  30.12°N, 94.01°W
Report Text: KBPT 200053Z AUTO 36009KT 10SM -RA OVC006 12/12 A3005 RMK AO2 SLP174 P0000 T01220117
Loading
Personal Weather Stations






























Interactive Weather Map New forecast layout! Learn more

10-Day Weather Forecast

Advertisements
Track Severe Weather on mobile